createdAt,value
2023-03-16T00:01:15.096Z,101514.78
2023-03-16T00:03:42.703Z,101525.28
2023-03-16T00:06:10.441Z,101525.72
2023-03-16T00:08:39.128Z,101520.47
2023-03-16T00:11:07.448Z,101523.44
2023-03-16T00:13:35.074Z,101525.84
2023-03-16T00:16:05.103Z,101523.34
2023-03-16T00:18:39.136Z,101528.97
2023-03-16T00:21:07.197Z,101529.47
2023-03-16T00:23:36.029Z,101521.59
2023-03-16T00:26:04.603Z,101520.75
2023-03-16T00:28:35.126Z,101526.22
2023-03-16T00:31:04.385Z,101533.88
2023-03-16T00:33:34.711Z,101529.09
2023-03-16T00:36:05.018Z,101543.00
2023-03-16T00:38:34.583Z,101532.59
2023-03-16T00:41:03.892Z,101544.34
2023-03-16T00:43:31.790Z,101536.06
2023-03-16T00:46:01.256Z,101537.91
2023-03-16T00:48:34.424Z,101544.75
2023-03-16T00:51:02.906Z,101536.00
2023-03-16T00:53:31.202Z,101551.00
2023-03-16T00:55:59.086Z,101544.13
2023-03-16T00:58:26.727Z,101541.84
2023-03-16T01:00:55.241Z,101549.44
2023-03-16T01:03:22.880Z,101546.63
2023-03-16T01:05:51.968Z,101548.66
2023-03-16T01:08:19.577Z,101547.06
2023-03-16T01:10:47.198Z,101552.88
2023-03-16T01:13:14.824Z,101549.69
2023-03-16T01:15:42.870Z,101549.47
2023-03-16T01:18:13.322Z,101560.13
2023-03-16T01:20:43.381Z,101549.75
2023-03-16T01:23:12.389Z,101559.72
2023-03-16T01:25:39.999Z,101556.06
2023-03-16T01:28:07.651Z,101547.53
2023-03-16T01:30:35.788Z,101550.88
2023-03-16T01:33:03.966Z,101542.28
2023-03-16T01:35:31.889Z,101541.00
2023-03-16T01:37:59.597Z,101544.06
2023-03-16T01:40:29.712Z,101544.03
2023-03-16T01:43:01.129Z,101544.72
2023-03-16T01:45:50.037Z,101547.31
2023-03-16T01:48:17.736Z,101545.56
2023-03-16T01:50:45.386Z,101553.09
2023-03-16T01:53:12.999Z,101551.19
2023-03-16T01:55:42.102Z,101549.38
2023-03-16T01:58:09.674Z,101549.16
2023-03-16T02:00:37.489Z,101544.41
2023-03-16T02:03:19.395Z,101544.72
2023-03-16T02:05:52.630Z,101544.25
2023-03-16T02:08:22.864Z,101539.53
2023-03-16T02:10:54.531Z,101539.31
2023-03-16T02:13:23.443Z,101540.16
2023-03-16T02:15:52.053Z,101539.97
2023-03-16T02:18:20.022Z,101532.38
2023-03-16T02:20:48.918Z,101528.84
2023-03-16T02:23:19.343Z,101533.31
2023-03-16T02:25:51.645Z,101534.31
2023-03-16T02:28:22.459Z,101534.88
2023-03-16T02:30:51.525Z,101533.69
2023-03-16T02:33:19.394Z,101532.06
2023-03-16T02:35:47.130Z,101538.44
2023-03-16T02:38:14.856Z,101536.19
2023-03-16T02:40:54.104Z,101539.94
2023-03-16T02:43:22.077Z,101540.34
2023-03-16T02:46:03.379Z,101546.75
2023-03-16T02:48:32.707Z,101549.47
2023-03-16T02:51:00.732Z,101546.41
2023-03-16T02:53:28.735Z,101545.06
2023-03-16T02:55:58.763Z,101545.81
2023-03-16T02:58:26.646Z,101537.28
2023-03-16T03:00:54.229Z,101550.38
2023-03-16T03:03:23.271Z,101550.63
2023-03-16T03:05:50.998Z,101550.41
2023-03-16T03:08:20.334Z,101543.66
2023-03-16T03:10:48.360Z,101560.31
2023-03-16T03:13:16.280Z,101551.53
2023-03-16T03:15:44.000Z,101556.84
2023-03-16T03:18:12.429Z,101567.25
2023-03-16T03:20:42.253Z,101560.88
2023-03-16T03:23:11.017Z,101566.09
2023-03-16T03:25:38.703Z,101562.63
2023-03-16T03:28:06.707Z,101569.41
2023-03-16T03:30:34.394Z,101574.81
2023-03-16T03:33:02.675Z,101570.66
2023-03-16T03:35:30.710Z,101575.84
2023-03-16T03:37:59.835Z,101570.72
2023-03-16T03:40:27.754Z,101577.38
2023-03-16T03:42:59.188Z,101572.53
2023-03-16T03:45:27.988Z,101566.66
2023-03-16T03:47:56.225Z,101571.78
2023-03-16T03:50:24.426Z,101578.56
2023-03-16T03:53:01.236Z,101573.47
2023-03-16T03:55:32.122Z,101574.22
2023-03-16T03:57:59.725Z,101580.19
2023-03-16T04:00:27.642Z,101577.78
2023-03-16T04:02:55.617Z,101572.75
2023-03-16T04:05:30.426Z,101581.19
2023-03-16T04:07:58.068Z,101579.63
2023-03-16T04:10:27.837Z,101571.03
2023-03-16T04:12:56.699Z,101573.38
2023-03-16T04:15:24.585Z,101575.19
2023-03-16T04:18:12.868Z,101570.75
2023-03-16T04:20:41.649Z,101576.88
2023-03-16T04:23:10.136Z,101571.63
2023-03-16T04:25:42.216Z,101573.13
2023-03-16T04:28:10.877Z,101570.31
2023-03-16T04:30:42.911Z,101581.72
2023-03-16T04:33:25.980Z,101577.59
2023-03-16T04:35:53.818Z,101577.06
2023-03-16T04:38:23.200Z,101579.53
2023-03-16T04:40:56.603Z,101577.28
2023-03-16T04:43:28.046Z,101582.34
2023-03-16T04:46:01.313Z,101582.34
2023-03-16T04:48:32.211Z,101592.84
2023-03-16T04:51:01.457Z,101586.00
2023-03-16T04:53:31.813Z,101586.31
2023-03-16T04:56:04.938Z,101584.59
2023-03-16T04:58:32.963Z,101588.88
2023-03-16T05:01:02.590Z,101585.19
2023-03-16T05:03:32.546Z,101591.25
2023-03-16T05:06:01.007Z,101600.06
2023-03-16T05:08:31.499Z,101596.25
2023-03-16T05:10:59.315Z,101598.44
2023-03-16T05:13:32.006Z,101592.19
2023-03-16T05:16:01.772Z,101595.06
2023-03-16T05:18:33.845Z,101599.16
2023-03-16T05:21:01.589Z,101586.75
2023-03-16T05:23:40.344Z,101591.34
2023-03-16T05:26:09.755Z,101599.34
2023-03-16T05:28:42.524Z,101598.06
2023-03-16T05:31:12.937Z,101597.72
2023-03-16T05:33:45.340Z,101598.50
2023-03-16T05:36:18.496Z,101604.22
2023-03-16T05:38:49.458Z,101602.59
2023-03-16T05:41:36.373Z,101602.56
2023-03-16T05:44:10.493Z,101608.63
2023-03-16T05:47:01.376Z,101609.47
2023-03-16T05:49:31.323Z,101603.44
2023-03-16T05:52:01.066Z,101610.63
2023-03-16T05:54:30.032Z,101606.94
2023-03-16T05:56:57.715Z,101607.16
2023-03-16T05:59:27.045Z,101612.34
2023-03-16T06:01:57.536Z,101619.75
2023-03-16T06:04:25.329Z,101623.34
2023-03-16T06:07:00.022Z,101621.50
2023-03-16T06:09:29.541Z,101618.81
2023-03-16T06:11:57.176Z,101618.38
2023-03-16T06:14:24.876Z,101623.56
2023-03-16T06:16:56.308Z,101625.25
2023-03-16T06:19:23.999Z,101623.19
2023-03-16T06:21:57.418Z,101622.78
2023-03-16T06:24:25.158Z,101620.16
2023-03-16T06:26:53.119Z,101624.00
2023-03-16T06:29:23.668Z,101631.22
2023-03-16T06:31:55.385Z,101636.00
2023-03-16T06:34:25.577Z,101636.09
2023-03-16T06:36:53.748Z,101643.56
2023-03-16T06:39:21.417Z,101646.41
2023-03-16T06:41:51.330Z,101649.84
2023-03-16T06:44:19.095Z,101653.09
2023-03-16T06:46:56.975Z,101655.31
2023-03-16T06:49:26.167Z,101654.41
2023-03-16T06:51:54.082Z,101652.97
2023-03-16T06:54:22.314Z,101666.56
2023-03-16T06:56:50.043Z,101677.31
2023-03-16T06:59:17.715Z,101670.06
2023-03-16T07:01:45.431Z,101676.41
2023-03-16T07:04:16.610Z,101668.69
2023-03-16T07:06:45.933Z,101672.97
2023-03-16T07:09:13.677Z,101677.50
2023-03-16T07:11:42.586Z,101675.75
2023-03-16T07:14:11.008Z,101679.19
2023-03-16T07:16:38.808Z,101683.81
2023-03-16T07:19:08.205Z,101686.31
2023-03-16T07:21:39.924Z,101692.09
2023-03-16T07:24:13.127Z,101692.50
2023-03-16T07:26:42.485Z,101689.38
2023-03-16T07:29:12.408Z,101684.09
2023-03-16T07:31:40.360Z,101687.13
2023-03-16T07:34:13.532Z,101696.00
2023-03-16T07:36:48.640Z,101691.63
2023-03-16T07:39:18.317Z,101701.72
2023-03-16T07:41:47.746Z,101706.56
2023-03-16T07:44:18.258Z,101714.50
2023-03-16T07:46:49.287Z,101705.16
2023-03-16T07:49:17.714Z,101706.72
2023-03-16T07:51:47.032Z,101707.09
2023-03-16T07:54:16.166Z,101703.31
2023-03-16T07:56:49.247Z,101713.66
2023-03-16T07:59:32.587Z,101714.81
2023-03-16T08:02:01.409Z,101711.25
2023-03-16T08:04:29.393Z,101710.38
2023-03-16T08:07:00.336Z,101711.16
2023-03-16T08:09:35.876Z,101705.66
2023-03-16T08:12:07.778Z,101713.97
2023-03-16T08:14:37.473Z,101718.94
2023-03-16T08:17:22.307Z,101707.19
2023-03-16T08:19:50.834Z,101717.47
2023-03-16T08:22:20.998Z,101711.91
2023-03-16T08:24:50.513Z,101710.63
2023-03-16T08:27:20.627Z,101709.88
2023-03-16T08:29:53.084Z,101715.66
2023-03-16T08:32:22.295Z,101709.47
2023-03-16T08:34:52.640Z,101712.78
2023-03-16T08:37:20.683Z,101715.38
2023-03-16T08:39:51.438Z,101711.63
2023-03-16T08:42:21.114Z,101711.81
2023-03-16T08:45:02.317Z,101720.13
2023-03-16T08:47:40.340Z,101719.44
2023-03-16T08:50:10.238Z,101724.81
2023-03-16T08:52:43.945Z,101736.50
2023-03-16T08:55:13.181Z,101735.25
2023-03-16T08:57:45.019Z,101741.38
2023-03-16T09:00:14.529Z,101727.50
2023-03-16T09:02:42.331Z,101733.31
2023-03-16T09:05:11.120Z,101732.16
2023-03-16T09:07:39.267Z,101738.19
2023-03-16T09:10:07.207Z,101742.34
2023-03-16T09:12:36.420Z,101744.84
2023-03-16T09:15:05.861Z,101744.78
2023-03-16T09:17:34.706Z,101750.41
2023-03-16T09:20:15.436Z,101739.78
2023-03-16T09:22:49.126Z,101748.25
2023-03-16T09:25:16.940Z,101754.47
2023-03-16T09:27:44.619Z,101758.47
2023-03-16T09:30:14.237Z,101744.34
2023-03-16T09:32:42.025Z,101756.78
2023-03-16T09:35:09.847Z,101752.47
2023-03-16T09:37:44.920Z,101748.09
2023-03-16T09:40:16.238Z,101755.31
2023-03-16T09:42:45.364Z,101751.44
2023-03-16T09:45:17.168Z,101749.69
2023-03-16T09:47:45.351Z,101746.91
2023-03-16T09:50:16.503Z,101760.53
2023-03-16T09:52:44.822Z,101750.69
2023-03-16T09:55:48.792Z,101748.56
2023-03-16T09:58:34.969Z,101760.97
2023-03-16T10:01:24.453Z,101765.03
2023-03-16T10:04:10.983Z,101767.84
2023-03-16T10:07:02.521Z,101760.38
2023-03-16T10:12:17.568Z,101748.56
2023-03-16T10:14:46.811Z,101751.81
2023-03-16T10:17:16.979Z,101742.72
2023-03-16T10:19:45.418Z,101750.47
2023-03-16T10:22:16.093Z,101742.22
2023-03-16T10:24:44.934Z,101743.66
2023-03-16T10:27:15.647Z,101740.59
2023-03-16T10:29:43.332Z,101746.47
2023-03-16T10:32:13.668Z,101739.25
2023-03-16T10:34:42.918Z,101740.63
2023-03-16T10:37:11.390Z,101749.69
2023-03-16T10:39:43.172Z,101739.28
2023-03-16T10:42:15.558Z,101730.94
2023-03-16T10:44:43.405Z,101739.16
2023-03-16T10:47:15.058Z,101738.56
2023-03-16T10:49:48.907Z,101728.50
2023-03-16T10:52:17.783Z,101738.47
2023-03-16T10:54:49.597Z,101731.28
2023-03-16T10:57:22.649Z,101726.19
2023-03-16T10:59:50.557Z,101726.22
2023-03-16T11:02:19.478Z,101732.78
2023-03-16T11:04:49.418Z,101731.75
2023-03-16T11:07:17.446Z,101724.25
2023-03-16T11:09:45.014Z,101725.34
2023-03-16T11:12:17.254Z,101723.56
2023-03-16T11:14:45.536Z,101722.41
2023-03-16T11:17:14.379Z,101726.00
2023-03-16T11:19:42.669Z,101719.41
2023-03-16T11:22:13.194Z,101718.53
2023-03-16T11:24:42.814Z,101714.94
2023-03-16T11:27:13.669Z,101710.88
2023-03-16T11:29:45.112Z,101707.00
2023-03-16T11:32:15.397Z,101711.09
2023-03-16T11:34:46.620Z,101708.47
2023-03-16T11:37:17.419Z,101705.94
2023-03-16T11:39:46.328Z,101713.16
2023-03-16T11:42:24.045Z,101695.88
2023-03-16T11:44:52.720Z,101692.81
2023-03-16T11:47:27.427Z,101698.06
2023-03-16T11:49:56.957Z,101685.53
2023-03-16T11:52:30.166Z,101693.91
2023-03-16T11:55:10.428Z,101682.28
2023-03-16T11:57:41.590Z,101680.63
2023-03-16T12:00:16.473Z,101671.81
2023-03-16T12:02:48.785Z,101685.59
2023-03-16T12:05:32.673Z,101675.97
2023-03-16T12:08:04.988Z,101664.63
2023-03-16T12:10:33.918Z,101664.28
2023-03-16T12:13:04.373Z,101661.44
2023-03-16T12:15:33.547Z,101655.31
2023-03-16T12:18:02.825Z,101659.59
2023-03-16T12:20:31.665Z,101652.94
2023-03-16T12:23:00.014Z,101648.28
2023-03-16T12:25:31.106Z,101656.16
2023-03-16T12:28:00.378Z,101653.81
2023-03-16T12:30:31.094Z,101653.19
2023-03-16T12:33:00.771Z,101643.72
2023-03-16T12:35:30.303Z,101637.13
2023-03-16T12:38:15.239Z,101636.69
2023-03-16T12:40:46.577Z,101632.16
2023-03-16T12:43:18.978Z,101620.09
2023-03-16T12:45:47.980Z,101625.56
2023-03-16T12:48:17.366Z,101620.66
2023-03-16T12:50:49.499Z,101613.69
2023-03-16T12:53:26.489Z,101624.13
2023-03-16T12:55:56.613Z,101614.56
2023-03-16T12:58:24.296Z,101612.31
2023-03-16T13:00:56.879Z,101607.56
2023-03-16T13:03:25.596Z,101608.44
2023-03-16T13:05:54.532Z,101602.63
2023-03-16T13:08:22.772Z,101593.72
2023-03-16T13:11:05.007Z,101591.38
2023-03-16T13:13:32.807Z,101589.25
2023-03-16T13:16:05.787Z,101590.06
2023-03-16T13:18:38.605Z,101590.69
2023-03-16T13:21:17.669Z,101583.06
2023-03-16T13:23:54.421Z,101584.72
2023-03-16T13:26:27.107Z,101583.75
2023-03-16T13:28:55.354Z,101588.25
2023-03-16T13:31:25.291Z,101592.00
2023-03-16T13:33:53.599Z,101603.94
2023-03-16T13:36:21.207Z,101609.03
2023-03-16T13:38:56.292Z,101602.50
2023-03-16T13:41:25.880Z,101599.56
2023-03-16T13:43:53.558Z,101596.00
2023-03-16T13:46:22.352Z,101596.59
2023-03-16T13:48:50.303Z,101596.44
2023-03-16T13:51:18.510Z,101583.72
2023-03-16T13:53:46.141Z,101579.72
2023-03-16T13:56:14.316Z,101573.22
2023-03-16T13:58:44.590Z,101568.22
2023-03-16T14:01:14.371Z,101561.31
2023-03-16T14:03:42.716Z,101562.97
2023-03-16T14:06:19.870Z,101566.28
2023-03-16T14:08:48.361Z,101553.56
2023-03-16T14:11:16.068Z,101551.88
2023-03-16T14:13:51.020Z,101559.41
2023-03-16T14:16:19.852Z,101557.28
2023-03-16T14:18:48.418Z,101555.19
2023-03-16T14:21:17.684Z,101547.34
2023-03-16T14:23:45.722Z,101548.41
2023-03-16T14:26:13.898Z,101559.91
2023-03-16T14:28:42.479Z,101550.75
2023-03-16T14:31:12.767Z,101545.03
2023-03-16T14:33:41.923Z,101546.69
2023-03-16T14:36:12.946Z,101542.09
2023-03-16T14:38:41.686Z,101536.97
2023-03-16T14:41:15.505Z,101534.06
2023-03-16T14:43:46.348Z,101526.34
2023-03-16T14:46:16.902Z,101519.94
2023-03-16T14:48:45.728Z,101514.34
2023-03-16T14:51:14.223Z,101506.31
2023-03-16T14:53:41.967Z,101512.78
2023-03-16T14:56:10.848Z,101513.63
2023-03-16T14:58:38.468Z,101512.34
2023-03-16T15:01:06.312Z,101499.09
2023-03-16T15:03:36.238Z,101506.00
2023-03-16T15:06:03.909Z,101509.50
2023-03-16T15:08:32.792Z,101506.16
2023-03-16T15:11:00.978Z,101500.50
2023-03-16T15:13:53.158Z,101488.03
2023-03-16T15:16:21.748Z,101492.69
2023-03-16T15:18:51.859Z,101488.94
2023-03-16T15:21:20.641Z,101489.78
2023-03-16T15:23:48.300Z,101491.50
2023-03-16T15:26:16.510Z,101490.91
2023-03-16T15:28:44.264Z,101487.72
2023-03-16T15:31:13.191Z,101481.88
2023-03-16T15:33:41.203Z,101492.97
2023-03-16T15:36:12.921Z,101489.06
2023-03-16T15:38:40.779Z,101480.78
2023-03-16T15:41:09.634Z,101484.03
2023-03-16T15:43:37.248Z,101482.88
2023-03-16T15:46:05.100Z,101485.59
2023-03-16T15:48:34.793Z,101475.28
2023-03-16T15:51:03.212Z,101474.06
2023-03-16T15:53:35.585Z,101478.72
2023-03-16T15:56:04.242Z,101479.63
2023-03-16T15:58:32.548Z,101462.09
2023-03-16T16:01:00.619Z,101469.09
2023-03-16T16:03:28.481Z,101461.53
2023-03-16T16:05:56.399Z,101471.53
2023-03-16T16:08:24.164Z,101464.22
2023-03-16T16:10:53.619Z,101473.31
2023-03-16T16:13:23.388Z,101466.84
2023-03-16T16:15:54.333Z,101472.94
2023-03-16T16:18:32.214Z,101459.22
2023-03-16T16:21:01.341Z,101473.22
2023-03-16T16:23:29.368Z,101468.81
2023-03-16T16:25:59.577Z,101470.56
2023-03-16T16:28:28.027Z,101464.44
2023-03-16T16:30:55.906Z,101468.59
2023-03-16T16:33:24.586Z,101481.25
2023-03-16T16:35:52.357Z,101469.66
2023-03-16T16:38:20.000Z,101467.28
2023-03-16T16:40:47.651Z,101472.63
2023-03-16T16:43:21.790Z,101466.25
2023-03-16T16:45:49.801Z,101464.06
2023-03-16T16:48:23.385Z,101463.44
2023-03-16T16:50:51.581Z,101451.22
2023-03-16T16:53:19.941Z,101457.69
2023-03-16T16:55:48.480Z,101451.56
2023-03-16T16:58:24.211Z,101446.19
2023-03-16T17:00:54.864Z,101450.25
2023-03-16T17:03:24.082Z,101449.59
2023-03-16T17:05:52.277Z,101445.09
2023-03-16T17:08:20.405Z,101445.09
2023-03-16T17:10:48.030Z,101439.75
2023-03-16T17:13:23.210Z,101439.72
2023-03-16T17:15:50.972Z,101442.25
2023-03-16T17:18:20.586Z,101446.00
2023-03-16T17:20:48.575Z,101444.28
2023-03-16T17:23:22.715Z,101447.31
2023-03-16T17:25:50.655Z,101445.41
2023-03-16T17:28:18.514Z,101457.97
2023-03-16T17:30:47.854Z,101445.31
2023-03-16T17:33:15.858Z,101454.47
2023-03-16T17:35:45.738Z,101450.56
2023-03-16T17:38:17.746Z,101458.31
2023-03-16T17:40:45.697Z,101452.88
2023-03-16T17:43:14.396Z,101453.59
2023-03-16T17:45:42.184Z,101456.03
2023-03-16T17:48:13.623Z,101453.44
2023-03-16T17:50:41.460Z,101456.22
2023-03-16T17:53:10.434Z,101463.56
2023-03-16T17:55:38.717Z,101449.69
2023-03-16T17:58:06.497Z,101453.13
2023-03-16T18:00:34.963Z,101443.19
2023-03-16T18:03:03.007Z,101437.47
2023-03-16T18:05:31.442Z,101425.22
2023-03-16T18:07:59.929Z,101439.41
2023-03-16T18:10:30.129Z,101436.13
2023-03-16T18:12:59.499Z,101443.16
2023-03-16T18:15:29.238Z,101446.00
2023-03-16T18:17:56.931Z,101447.31
2023-03-16T18:20:27.624Z,101450.16
2023-03-16T18:22:56.143Z,101453.06
2023-03-16T18:25:32.353Z,101449.66
2023-03-16T18:28:00.221Z,101447.56
2023-03-16T18:30:28.417Z,101436.44
2023-03-16T18:32:56.547Z,101434.22
2023-03-16T18:35:24.368Z,101433.19
2023-03-16T18:37:53.229Z,101428.13
2023-03-16T18:40:20.921Z,101428.25
2023-03-16T18:42:49.998Z,101434.31
2023-03-16T18:45:17.756Z,101439.72
2023-03-16T18:47:47.634Z,101428.63
2023-03-16T18:50:19.601Z,101429.09
2023-03-16T18:52:49.336Z,101430.56
2023-03-16T18:55:18.461Z,101423.94
2023-03-16T18:57:50.206Z,101415.38
2023-03-16T19:00:20.343Z,101414.03
2023-03-16T19:02:48.520Z,101420.97
2023-03-16T19:05:19.829Z,101420.75
2023-03-16T19:07:48.720Z,101412.38
2023-03-16T19:10:22.075Z,101414.72
2023-03-16T19:12:49.809Z,101424.00
2023-03-16T19:15:20.441Z,101410.59
2023-03-16T19:17:48.595Z,101400.97
2023-03-16T19:20:17.452Z,101407.06
2023-03-16T19:22:46.007Z,101404.69
2023-03-16T19:25:20.993Z,101406.19
2023-03-16T19:27:48.643Z,101410.81
2023-03-16T19:30:21.344Z,101414.75
2023-03-16T19:32:49.115Z,101412.72
2023-03-16T19:35:17.489Z,101403.28
2023-03-16T19:37:45.209Z,101407.88
2023-03-16T19:40:16.322Z,101414.59
2023-03-16T19:42:43.951Z,101419.84
2023-03-16T19:45:17.354Z,101421.88
2023-03-16T19:47:46.872Z,101440.38
2023-03-16T19:50:15.766Z,101440.47
2023-03-16T19:52:43.385Z,101438.06
2023-03-16T19:55:14.616Z,101419.66
2023-03-16T19:57:42.391Z,101417.47
2023-03-16T20:00:15.564Z,101421.00
2023-03-16T20:02:43.252Z,101425.47
2023-03-16T20:05:15.898Z,101423.13
2023-03-16T20:07:43.519Z,101432.22
2023-03-16T20:10:12.387Z,101428.03
2023-03-16T20:12:40.310Z,101414.31
2023-03-16T20:15:10.546Z,101411.66
2023-03-16T20:17:38.287Z,101411.06
2023-03-16T20:20:07.599Z,101420.19
2023-03-16T20:22:36.721Z,101409.94
2023-03-16T20:25:05.302Z,101408.81
2023-03-16T20:27:32.968Z,101413.75
2023-03-16T20:30:00.601Z,101416.72
2023-03-16T20:32:29.744Z,101408.13
2023-03-16T20:34:58.105Z,101404.66
2023-03-16T20:37:26.497Z,101409.53
2023-03-16T20:39:56.567Z,101408.22
2023-03-16T20:42:24.713Z,101415.59
2023-03-16T20:44:52.725Z,101405.09
2023-03-16T20:47:20.938Z,101406.19
2023-03-16T20:49:48.749Z,101401.50
2023-03-16T20:52:16.845Z,101401.03
2023-03-16T20:54:44.599Z,101396.47
2023-03-16T20:57:15.696Z,101403.72
2023-03-16T20:59:44.024Z,101402.25
2023-03-16T21:02:20.901Z,101396.06
2023-03-16T21:04:48.784Z,101387.66
2023-03-16T21:07:16.558Z,101385.66
2023-03-16T21:09:50.116Z,101371.66
2023-03-16T21:12:23.302Z,101373.53
2023-03-16T21:14:51.584Z,101373.47
2023-03-16T21:17:26.463Z,101378.03
2023-03-16T21:19:54.495Z,101360.63
2023-03-16T21:22:24.022Z,101364.72
2023-03-16T21:24:52.141Z,101368.59
2023-03-16T21:27:20.928Z,101362.56
2023-03-16T21:29:49.914Z,101360.03
2023-03-16T21:32:19.538Z,101357.38
2023-03-16T21:34:47.321Z,101353.59
2023-03-16T21:37:15.274Z,101345.78
2023-03-16T21:39:42.942Z,101345.41
2023-03-16T21:42:11.059Z,101347.50
2023-03-16T21:44:39.045Z,101343.03
2023-03-16T21:47:10.999Z,101345.94
2023-03-16T21:49:39.451Z,101344.38
2023-03-16T21:52:10.464Z,101339.97
2023-03-16T21:54:38.199Z,101340.75
2023-03-16T21:57:06.850Z,101332.59
2023-03-16T21:59:34.491Z,101327.84
2023-03-16T22:02:02.670Z,101319.44
2023-03-16T22:04:31.752Z,101323.28
2023-03-16T22:06:59.367Z,101316.22
2023-03-16T22:09:30.025Z,101314.66
2023-03-16T22:11:57.918Z,101319.38
2023-03-16T22:14:27.092Z,101317.66
2023-03-16T22:16:54.735Z,101305.41
2023-03-16T22:19:22.379Z,101294.69
2023-03-16T22:21:51.429Z,101299.56
2023-03-16T22:24:19.466Z,101300.50
2023-03-16T22:26:47.689Z,101304.00
2023-03-16T22:29:19.283Z,101309.41
2023-03-16T22:31:47.816Z,101289.97
2023-03-16T22:34:17.915Z,101284.09
2023-03-16T22:36:45.536Z,101282.63
2023-03-16T22:39:15.115Z,101288.53
2023-03-16T22:41:42.758Z,101280.00
2023-03-16T22:44:11.967Z,101283.88
2023-03-16T22:46:39.564Z,101283.56
2023-03-16T22:49:08.140Z,101287.16
2023-03-16T22:51:36.649Z,101279.72
2023-03-16T22:54:04.813Z,101280.19
2023-03-16T22:56:33.973Z,101276.28
2023-03-16T22:59:01.860Z,101274.13
2023-03-16T23:01:30.821Z,101275.41
2023-03-16T23:03:58.442Z,101262.78
2023-03-16T23:06:27.341Z,101254.72
2023-03-16T23:08:55.372Z,101269.13
2023-03-16T23:11:23.570Z,101268.41
2023-03-16T23:13:53.440Z,101264.56
2023-03-16T23:16:22.163Z,101256.84
2023-03-16T23:18:50.062Z,101263.06
2023-03-16T23:21:18.526Z,101256.53
2023-03-16T23:23:57.086Z,101253.56
2023-03-16T23:26:30.167Z,101248.06
2023-03-16T23:28:59.799Z,101245.69
2023-03-16T23:31:27.783Z,101245.22
2023-03-16T23:33:55.541Z,101245.09
2023-03-16T23:36:24.357Z,101241.31
2023-03-16T23:38:52.029Z,101238.03
2023-03-16T23:41:21.006Z,101233.00
2023-03-16T23:43:48.666Z,101241.34
2023-03-16T23:46:17.873Z,101235.69
2023-03-16T23:48:45.844Z,101237.63
2023-03-16T23:51:16.184Z,101230.75
2023-03-16T23:53:43.798Z,101231.50
2023-03-16T23:56:11.589Z,101244.34
2023-03-16T23:58:39.201Z,101236.78
